Terminal Aerodrome Forecast
Issued by NWS Omaha/Valley, NE

Home | Current Version | Previous Version | Text Only | Print | Product List | Glossary On
Versions: 1 2 3 4 5 6 7 8 9 10 11 12
000
FTUS43 KOAX 201735
TAFOMA
TAF
KOMA 201735Z 2018/2118 16017G24KT P6SM SCT250
     FM210300 17017G25KT P6SM VCSH OVC100
     FM210900 17017G25KT P6SM VCSH SCT015 OVC030 PROB30 2109/2112
      5SM -TSRA OVC015CB
     FM211400 18015G24KT P6SM -SHRA OVC015 PROB30 2114/2118 5SM
      -TSRA OVC015CB=

USA.gov is the U.S. government's official web portal to all federal, state and local government web resources and services.